sensor_id;sensor_type;location;lat;lon;timestamp;temperature;humidity
33673;DHT22;20011;51.510;9.942;2024-02-28T00:01:08;5.40;99.90
33673;DHT22;20011;51.510;9.942;2024-02-28T00:03:35;5.50;99.90
33673;DHT22;20011;51.510;9.942;2024-02-28T00:06:03;5.40;99.90
33673;DHT22;20011;51.510;9.942;2024-02-28T00:08:30;5.40;99.90
33673;DHT22;20011;51.510;9.942;2024-02-28T00:10:57;5.50;99.90
33673;DHT22;20011;51.510;9.942;2024-02-28T00:13:24;5.40;99.90
33673;DHT22;20011;51.510;9.942;2024-02-28T00:15:51;5.40;99.90
33673;DHT22;20011;51.510;9.942;2024-02-28T00:18:18;5.40;99.90
33673;DHT22;20011;51.510;9.942;2024-02-28T00:20:46;5.40;99.90
33673;DHT22;20011;51.510;9.942;2024-02-28T00:23:13;5.20;99.90
33673;DHT22;20011;51.510;9.942;2024-02-28T00:25:40;5.20;99.90
33673;DHT22;20011;51.510;9.942;2024-02-28T00:28:07;5.20;99.90
33673;DHT22;20011;51.510;9.942;2024-02-28T00:30:35;5.30;99.90
33673;DHT22;20011;51.510;9.942;2024-02-28T00:33:02;5.20;99.90
33673;DHT22;20011;51.510;9.942;2024-02-28T00:35:33;5.30;99.90
33673;DHT22;20011;51.510;9.942;2024-02-28T00:38:01;5.30;99.90
33673;DHT22;20011;51.510;9.942;2024-02-28T00:40:28;5.30;99.90
33673;DHT22;20011;51.510;9.942;2024-02-28T00:42:56;5.20;99.90
33673;DHT22;20011;51.510;9.942;2024-02-28T00:45:23;5.20;99.90
33673;DHT22;20011;51.510;9.942;2024-02-28T00:47:51;5.40;99.90
33673;DHT22;20011;51.510;9.942;2024-02-28T00:50:18;5.40;99.90
33673;DHT22;20011;51.510;9.942;2024-02-28T00:52:45;5.50;99.90
33673;DHT22;20011;51.510;9.942;2024-02-28T00:55:12;5.40;99.90
33673;DHT22;20011;51.510;9.942;2024-02-28T00:57:39;5.40;99.90
33673;DHT22;20011;51.510;9.942;2024-02-28T01:00:06;5.30;99.90
33673;DHT22;20011;51.510;9.942;2024-02-28T01:02:37;5.50;99.90
33673;DHT22;20011;51.510;9.942;2024-02-28T01:05:04;5.50;99.90
33673;DHT22;20011;51.510;9.942;2024-02-28T01:07:31;5.60;99.90
33673;DHT22;20011;51.510;9.942;2024-02-28T01:09:58;5.60;99.90
33673;DHT22;20011;51.510;9.942;2024-02-28T01:12:26;5.40;99.90
33673;DHT22;20011;51.510;9.942;2024-02-28T01:14:53;5.40;99.90
33673;DHT22;20011;51.510;9.942;2024-02-28T01:17:21;5.30;99.90
33673;DHT22;20011;51.510;9.942;2024-02-28T01:19:48;5.30;99.90
33673;DHT22;20011;51.510;9.942;2024-02-28T01:22:15;5.50;99.90
33673;DHT22;20011;51.510;9.942;2024-02-28T01:24:42;5.50;99.90
33673;DHT22;20011;51.510;9.942;2024-02-28T01:27:10;5.50;99.90
33673;DHT22;20011;51.510;9.942;2024-02-28T01:29:37;5.40;99.90
33673;DHT22;20011;51.510;9.942;2024-02-28T01:32:04;5.50;99.90
33673;DHT22;20011;51.510;9.942;2024-02-28T01:34:31;5.40;99.90
33673;DHT22;20011;51.510;9.942;2024-02-28T01:36:58;5.50;99.90
33673;DHT22;20011;51.510;9.942;2024-02-28T01:39:25;5.60;99.90
33673;DHT22;20011;51.510;9.942;2024-02-28T01:41:53;5.50;99.90
33673;DHT22;20011;51.510;9.942;2024-02-28T01:44:21;5.50;99.90
33673;DHT22;20011;51.510;9.942;2024-02-28T01:46:48;5.60;99.90
33673;DHT22;20011;51.510;9.942;2024-02-28T01:49:16;5.60;99.90
33673;DHT22;20011;51.510;9.942;2024-02-28T01:51:44;5.60;99.90
33673;DHT22;20011;51.510;9.942;2024-02-28T01:54:14;5.50;99.90
33673;DHT22;20011;51.510;9.942;2024-02-28T01:56:41;5.50;99.90
33673;DHT22;20011;51.510;9.942;2024-02-28T01:59:10;5.50;99.90
33673;DHT22;20011;51.510;9.942;2024-02-28T02:01:38;5.50;99.90
33673;DHT22;20011;51.510;9.942;2024-02-28T02:04:05;5.70;99.90
33673;DHT22;20011;51.510;9.942;2024-02-28T02:06:34;5.70;99.90
33673;DHT22;20011;51.510;9.942;2024-02-28T02:09:04;5.70;99.90
33673;DHT22;20011;51.510;9.942;2024-02-28T02:11:31;5.60;99.90
33673;DHT22;20011;51.510;9.942;2024-02-28T02:13:59;5.70;99.90
33673;DHT22;20011;51.510;9.942;2024-02-28T02:16:26;5.60;99.90
33673;DHT22;20011;51.510;9.942;2024-02-28T02:18:54;5.70;99.90
33673;DHT22;20011;51.510;9.942;2024-02-28T02:21:30;5.70;99.90
33673;DHT22;20011;51.510;9.942;2024-02-28T02:23:57;5.70;99.90
33673;DHT22;20011;51.510;9.942;2024-02-28T02:26:24;5.70;99.90
33673;DHT22;20011;51.510;9.942;2024-02-28T02:28:51;5.60;99.90
33673;DHT22;20011;51.510;9.942;2024-02-28T02:31:18;5.70;99.90
33673;DHT22;20011;51.510;9.942;2024-02-28T02:33:45;5.70;99.90
33673;DHT22;20011;51.510;9.942;2024-02-28T02:36:12;5.70;99.90
33673;DHT22;20011;51.510;9.942;2024-02-28T02:38:39;5.70;99.90
33673;DHT22;20011;51.510;9.942;2024-02-28T02:41:07;5.70;99.90
33673;DHT22;20011;51.510;9.942;2024-02-28T02:43:34;5.70;99.90
33673;DHT22;20011;51.510;9.942;2024-02-28T02:46:01;5.70;99.90
33673;DHT22;20011;51.510;9.942;2024-02-28T02:48:28;5.70;99.90
33673;DHT22;20011;51.510;9.942;2024-02-28T02:50:55;5.70;99.90
33673;DHT22;20011;51.510;9.942;2024-02-28T02:53:22;5.70;99.90
33673;DHT22;20011;51.510;9.942;2024-02-28T02:55:49;5.80;99.90
33673;DHT22;20011;51.510;9.942;2024-02-28T02:58:16;5.60;99.90
33673;DHT22;20011;51.510;9.942;2024-02-28T03:00:47;5.60;99.90
33673;DHT22;20011;51.510;9.942;2024-02-28T03:03:14;5.50;99.90
33673;DHT22;20011;51.510;9.942;2024-02-28T03:05:41;5.60;99.90
33673;DHT22;20011;51.510;9.942;2024-02-28T03:08:09;5.50;99.90
33673;DHT22;20011;51.510;9.942;2024-02-28T03:10:36;5.60;99.90
33673;DHT22;20011;51.510;9.942;2024-02-28T03:13:03;5.70;99.90
33673;DHT22;20011;51.510;9.942;2024-02-28T03:15:33;5.50;99.90
33673;DHT22;20011;51.510;9.942;2024-02-28T03:18:01;5.50;99.90
33673;DHT22;20011;51.510;9.942;2024-02-28T03:20:28;5.60;99.90
33673;DHT22;20011;51.510;9.942;2024-02-28T03:22:55;5.50;99.90
33673;DHT22;20011;51.510;9.942;2024-02-28T03:25:22;5.50;99.90
33673;DHT22;20011;51.510;9.942;2024-02-28T03:27:49;5.50;99.90
33673;DHT22;20011;51.510;9.942;2024-02-28T03:30:17;5.60;99.90
33673;DHT22;20011;51.510;9.942;2024-02-28T03:32:44;5.60;99.90
33673;DHT22;20011;51.510;9.942;2024-02-28T03:35:11;5.70;99.90
33673;DHT22;20011;51.510;9.942;2024-02-28T03:37:38;5.80;99.90
33673;DHT22;20011;51.510;9.942;2024-02-28T03:40:05;5.70;99.90
33673;DHT22;20011;51.510;9.942;2024-02-28T03:42:33;5.70;99.90
33673;DHT22;20011;51.510;9.942;2024-02-28T03:45:00;5.60;99.90
33673;DHT22;20011;51.510;9.942;2024-02-28T03:47:27;5.60;99.90
33673;DHT22;20011;51.510;9.942;2024-02-28T03:49:54;5.70;99.90
33673;DHT22;20011;51.510;9.942;2024-02-28T03:52:24;5.70;99.90
33673;DHT22;20011;51.510;9.942;2024-02-28T03:54:51;5.60;99.90
33673;DHT22;20011;51.510;9.942;2024-02-28T03:57:18;5.60;99.90
33673;DHT22;20011;51.510;9.942;2024-02-28T03:59:45;5.70;99.90
33673;DHT22;20011;51.510;9.942;2024-02-28T04:02:12;5.50;99.90
33673;DHT22;20011;51.510;9.942;2024-02-28T04:04:39;5.70;99.90
33673;DHT22;20011;51.510;9.942;2024-02-28T04:07:06;5.70;99.90
33673;DHT22;20011;51.510;9.942;2024-02-28T04:09:33;5.70;99.90
33673;DHT22;20011;51.510;9.942;2024-02-28T04:12:00;5.60;99.90
33673;DHT22;20011;51.510;9.942;2024-02-28T04:14:27;5.80;99.90
33673;DHT22;20011;51.510;9.942;2024-02-28T04:16:54;5.80;99.90
33673;DHT22;20011;51.510;9.942;2024-02-28T04:19:21;5.80;99.90
33673;DHT22;20011;51.510;9.942;2024-02-28T04:21:48;5.80;99.90
33673;DHT22;20011;51.510;9.942;2024-02-28T04:24:15;5.80;99.90
33673;DHT22;20011;51.510;9.942;2024-02-28T04:26:43;5.80;99.90
33673;DHT22;20011;51.510;9.942;2024-02-28T04:29:10;5.80;99.90
33673;DHT22;20011;51.510;9.942;2024-02-28T04:31:41;5.70;99.90
33673;DHT22;20011;51.510;9.942;2024-02-28T04:34:08;5.80;99.90
33673;DHT22;20011;51.510;9.942;2024-02-28T04:36:35;5.70;99.90
33673;DHT22;20011;51.510;9.942;2024-02-28T04:39:02;5.60;99.90
33673;DHT22;20011;51.510;9.942;2024-02-28T04:41:31;5.60;99.90
33673;DHT22;20011;51.510;9.942;2024-02-28T04:43:57;5.50;99.90
33673;DHT22;20011;51.510;9.942;2024-02-28T04:46:25;5.50;99.90
33673;DHT22;20011;51.510;9.942;2024-02-28T04:48:51;5.50;99.90
33673;DHT22;20011;51.510;9.942;2024-02-28T04:51:19;5.50;99.90
33673;DHT22;20011;51.510;9.942;2024-02-28T04:53:46;5.50;99.90
33673;DHT22;20011;51.510;9.942;2024-02-28T04:56:13;5.50;99.90
33673;DHT22;20011;51.510;9.942;2024-02-28T04:58:40;5.60;99.90
33673;DHT22;20011;51.510;9.942;2024-02-28T05:01:07;5.60;99.90
33673;DHT22;20011;51.510;9.942;2024-02-28T05:03:34;5.60;99.90
33673;DHT22;20011;51.510;9.942;2024-02-28T05:06:01;5.50;99.90
33673;DHT22;20011;51.510;9.942;2024-02-28T05:08:29;5.40;99.90
33673;DHT22;20011;51.510;9.942;2024-02-28T05:10:56;5.30;99.90
33673;DHT22;20011;51.510;9.942;2024-02-28T05:13:23;5.40;99.90
33673;DHT22;20011;51.510;9.942;2024-02-28T05:15:51;5.50;99.90
33673;DHT22;20011;51.510;9.942;2024-02-28T05:18:18;5.60;99.90
33673;DHT22;20011;51.510;9.942;2024-02-28T05:20:45;5.60;99.90
33673;DHT22;20011;51.510;9.942;2024-02-28T05:23:12;5.60;99.90
33673;DHT22;20011;51.510;9.942;2024-02-28T05:25:40;5.50;99.90
33673;DHT22;20011;51.510;9.942;2024-02-28T05:28:07;5.40;99.90
33673;DHT22;20011;51.510;9.942;2024-02-28T05:30:34;5.40;99.90
33673;DHT22;20011;51.510;9.942;2024-02-28T05:33:01;5.30;99.90
33673;DHT22;20011;51.510;9.942;2024-02-28T05:35:28;5.30;99.90
33673;DHT22;20011;51.510;9.942;2024-02-28T05:37:55;5.40;99.90
33673;DHT22;20011;51.510;9.942;2024-02-28T05:40:22;5.30;99.90
33673;DHT22;20011;51.510;9.942;2024-02-28T05:42:49;5.40;99.90
33673;DHT22;20011;51.510;9.942;2024-02-28T05:45:17;5.40;99.90
33673;DHT22;20011;51.510;9.942;2024-02-28T05:47:44;5.40;99.90
33673;DHT22;20011;51.510;9.942;2024-02-28T05:50:11;5.40;99.90
33673;DHT22;20011;51.510;9.942;2024-02-28T05:52:42;5.30;99.90
33673;DHT22;20011;51.510;9.942;2024-02-28T05:55:09;5.40;99.90
33673;DHT22;20011;51.510;9.942;2024-02-28T05:57:37;5.50;99.90
33673;DHT22;20011;51.510;9.942;2024-02-28T06:00:05;5.30;99.90
33673;DHT22;20011;51.510;9.942;2024-02-28T06:02:40;5.30;99.90
33673;DHT22;20011;51.510;9.942;2024-02-28T06:05:07;5.40;99.90
33673;DHT22;20011;51.510;9.942;2024-02-28T06:07:35;5.30;99.90
33673;DHT22;20011;51.510;9.942;2024-02-28T06:10:02;5.20;99.90
33673;DHT22;20011;51.510;9.942;2024-02-28T06:12:30;5.40;99.90
33673;DHT22;20011;51.510;9.942;2024-02-28T06:14:58;5.50;99.90
33673;DHT22;20011;51.510;9.942;2024-02-28T06:17:25;5.50;99.90
33673;DHT22;20011;51.510;9.942;2024-02-28T06:19:52;5.40;99.90
33673;DHT22;20011;51.510;9.942;2024-02-28T06:22:19;5.30;99.90
33673;DHT22;20011;51.510;9.942;2024-02-28T06:24:46;5.30;99.90
33673;DHT22;20011;51.510;9.942;2024-02-28T06:27:13;5.30;99.90
33673;DHT22;20011;51.510;9.942;2024-02-28T06:29:40;5.40;99.90
33673;DHT22;20011;51.510;9.942;2024-02-28T06:32:08;5.50;99.90
33673;DHT22;20011;51.510;9.942;2024-02-28T06:34:35;5.50;99.90
33673;DHT22;20011;51.510;9.942;2024-02-28T06:37:02;5.50;99.90
33673;DHT22;20011;51.510;9.942;2024-02-28T06:39:30;5.50;99.90
33673;DHT22;20011;51.510;9.942;2024-02-28T06:41:57;5.60;99.90
33673;DHT22;20011;51.510;9.942;2024-02-28T06:44:24;5.50;99.90
33673;DHT22;20011;51.510;9.942;2024-02-28T06:46:51;5.50;99.90
33673;DHT22;20011;51.510;9.942;2024-02-28T06:49:19;5.50;99.90
33673;DHT22;20011;51.510;9.942;2024-02-28T06:51:46;5.60;99.90
33673;DHT22;20011;51.510;9.942;2024-02-28T06:54:13;5.60;99.90
33673;DHT22;20011;51.510;9.942;2024-02-28T06:56:40;5.50;99.90
33673;DHT22;20011;51.510;9.942;2024-02-28T06:59:07;5.70;99.90
33673;DHT22;20011;51.510;9.942;2024-02-28T07:01:34;5.70;99.90
33673;DHT22;20011;51.510;9.942;2024-02-28T07:04:01;5.70;99.90
33673;DHT22;20011;51.510;9.942;2024-02-28T07:06:29;5.60;99.90
33673;DHT22;20011;51.510;9.942;2024-02-28T07:08:56;5.50;99.90
33673;DHT22;20011;51.510;9.942;2024-02-28T07:11:23;5.50;99.90
33673;DHT22;20011;51.510;9.942;2024-02-28T07:13:50;5.50;99.90
33673;DHT22;20011;51.510;9.942;2024-02-28T07:16:17;5.50;99.90
33673;DHT22;20011;51.510;9.942;2024-02-28T07:18:44;5.60;99.90
33673;DHT22;20011;51.510;9.942;2024-02-28T07:21:11;5.50;99.90
33673;DHT22;20011;51.510;9.942;2024-02-28T07:23:39;5.60;99.90
33673;DHT22;20011;51.510;9.942;2024-02-28T07:26:07;5.50;99.90
33673;DHT22;20011;51.510;9.942;2024-02-28T07:28:45;5.50;99.90
33673;DHT22;20011;51.510;9.942;2024-02-28T07:31:18;5.50;99.90
33673;DHT22;20011;51.510;9.942;2024-02-28T07:36:27;5.50;99.90
33673;DHT22;20011;51.510;9.942;2024-02-28T07:38:56;5.50;99.90
33673;DHT22;20011;51.510;9.942;2024-02-28T07:41:25;5.50;99.90
33673;DHT22;20011;51.510;9.942;2024-02-28T07:43:54;5.50;99.90
33673;DHT22;20011;51.510;9.942;2024-02-28T07:46:21;5.50;99.90
33673;DHT22;20011;51.510;9.942;2024-02-28T07:48:48;5.50;99.90
33673;DHT22;20011;51.510;9.942;2024-02-28T07:51:15;5.50;99.90
33673;DHT22;20011;51.510;9.942;2024-02-28T07:53:44;5.50;99.90
33673;DHT22;20011;51.510;9.942;2024-02-28T07:56:18;5.50;99.90
33673;DHT22;20011;51.510;9.942;2024-02-28T07:58:45;5.50;99.90
33673;DHT22;20011;51.510;9.942;2024-02-28T08:01:12;5.50;99.90
33673;DHT22;20011;51.510;9.942;2024-02-28T08:03:39;5.70;99.90
33673;DHT22;20011;51.510;9.942;2024-02-28T08:06:07;5.70;99.90
33673;DHT22;20011;51.510;9.942;2024-02-28T08:08:35;5.70;99.90
33673;DHT22;20011;51.510;9.942;2024-02-28T08:11:02;5.80;99.90
33673;DHT22;20011;51.510;9.942;2024-02-28T08:13:31;5.80;99.90
33673;DHT22;20011;51.510;9.942;2024-02-28T08:15:59;5.70;99.90
33673;DHT22;20011;51.510;9.942;2024-02-28T08:18:27;5.90;99.90
33673;DHT22;20011;51.510;9.942;2024-02-28T08:20:55;5.80;99.90
33673;DHT22;20011;51.510;9.942;2024-02-28T08:23:24;5.60;99.90
33673;DHT22;20011;51.510;9.942;2024-02-28T08:25:53;5.70;99.90
33673;DHT22;20011;51.510;9.942;2024-02-28T08:28:21;5.70;99.90
33673;DHT22;20011;51.510;9.942;2024-02-28T08:30:48;5.70;99.90
33673;DHT22;20011;51.510;9.942;2024-02-28T08:33:15;5.80;99.90
33673;DHT22;20011;51.510;9.942;2024-02-28T08:35:45;5.80;99.90
33673;DHT22;20011;51.510;9.942;2024-02-28T08:38:12;5.90;99.90
33673;DHT22;20011;51.510;9.942;2024-02-28T08:40:39;5.70;99.90
33673;DHT22;20011;51.510;9.942;2024-02-28T08:43:06;6.00;99.90
33673;DHT22;20011;51.510;9.942;2024-02-28T08:45:33;5.80;99.90
33673;DHT22;20011;51.510;9.942;2024-02-28T08:48:04;5.70;99.90
33673;DHT22;20011;51.510;9.942;2024-02-28T08:50:31;5.60;99.90
33673;DHT22;20011;51.510;9.942;2024-02-28T08:52:58;5.70;99.90
33673;DHT22;20011;51.510;9.942;2024-02-28T08:55:25;5.60;99.90
33673;DHT22;20011;51.510;9.942;2024-02-28T08:57:52;5.70;99.90
33673;DHT22;20011;51.510;9.942;2024-02-28T09:00:19;5.80;99.90
33673;DHT22;20011;51.510;9.942;2024-02-28T09:02:46;5.80;99.90
33673;DHT22;20011;51.510;9.942;2024-02-28T09:05:13;5.80;99.90
33673;DHT22;20011;51.510;9.942;2024-02-28T09:07:40;5.90;99.90
33673;DHT22;20011;51.510;9.942;2024-02-28T09:10:07;5.90;99.90
33673;DHT22;20011;51.510;9.942;2024-02-28T09:12:34;5.80;99.90
33673;DHT22;20011;51.510;9.942;2024-02-28T09:15:01;5.80;99.90
33673;DHT22;20011;51.510;9.942;2024-02-28T09:17:29;5.90;99.90
33673;DHT22;20011;51.510;9.942;2024-02-28T09:19:58;6.10;99.90
33673;DHT22;20011;51.510;9.942;2024-02-28T09:22:28;6.00;99.90
33673;DHT22;20011;51.510;9.942;2024-02-28T09:24:55;6.20;99.90
33673;DHT22;20011;51.510;9.942;2024-02-28T09:27:22;6.10;99.90
33673;DHT22;20011;51.510;9.942;2024-02-28T09:29:49;6.10;99.90
33673;DHT22;20011;51.510;9.942;2024-02-28T09:32:16;6.10;99.90
33673;DHT22;20011;51.510;9.942;2024-02-28T09:34:45;6.20;99.90
33673;DHT22;20011;51.510;9.942;2024-02-28T09:37:12;6.20;99.90
33673;DHT22;20011;51.510;9.942;2024-02-28T09:39:39;6.30;99.90
33673;DHT22;20011;51.510;9.942;2024-02-28T09:42:07;6.30;99.90
33673;DHT22;20011;51.510;9.942;2024-02-28T09:44:36;6.30;99.90
33673;DHT22;20011;51.510;9.942;2024-02-28T09:47:03;6.40;99.90
33673;DHT22;20011;51.510;9.942;2024-02-28T09:49:31;6.30;99.90
33673;DHT22;20011;51.510;9.942;2024-02-28T09:51:59;6.40;99.90
33673;DHT22;20011;51.510;9.942;2024-02-28T09:54:26;6.40;99.90
33673;DHT22;20011;51.510;9.942;2024-02-28T09:56:54;6.50;99.90
33673;DHT22;20011;51.510;9.942;2024-02-28T09:59:23;6.40;99.90
33673;DHT22;20011;51.510;9.942;2024-02-28T10:02:05;6.50;99.90
33673;DHT22;20011;51.510;9.942;2024-02-28T10:04:33;6.40;99.90
33673;DHT22;20011;51.510;9.942;2024-02-28T10:07:10;6.50;99.90
33673;DHT22;20011;51.510;9.942;2024-02-28T10:09:41;6.60;99.90
33673;DHT22;20011;51.510;9.942;2024-02-28T10:12:08;6.60;99.90
33673;DHT22;20011;51.510;9.942;2024-02-28T10:14:35;6.70;99.90
33673;DHT22;20011;51.510;9.942;2024-02-28T10:17:02;6.60;99.90
33673;DHT22;20011;51.510;9.942;2024-02-28T10:19:29;6.70;99.90
33673;DHT22;20011;51.510;9.942;2024-02-28T10:21:56;6.80;99.90
33673;DHT22;20011;51.510;9.942;2024-02-28T10:24:26;6.80;99.90
33673;DHT22;20011;51.510;9.942;2024-02-28T10:26:53;6.80;99.90
33673;DHT22;20011;51.510;9.942;2024-02-28T10:29:24;7.00;99.90
33673;DHT22;20011;51.510;9.942;2024-02-28T10:31:51;6.90;99.90
33673;DHT22;20011;51.510;9.942;2024-02-28T10:34:18;6.90;99.90
33673;DHT22;20011;51.510;9.942;2024-02-28T10:36:46;6.90;99.90
33673;DHT22;20011;51.510;9.942;2024-02-28T10:39:14;6.90;99.90
33673;DHT22;20011;51.510;9.942;2024-02-28T10:41:42;6.90;99.90
33673;DHT22;20011;51.510;9.942;2024-02-28T10:44:11;7.00;99.90
33673;DHT22;20011;51.510;9.942;2024-02-28T10:46:39;7.00;99.90
33673;DHT22;20011;51.510;9.942;2024-02-28T10:49:08;7.10;99.90
33673;DHT22;20011;51.510;9.942;2024-02-28T10:51:36;7.10;99.90
33673;DHT22;20011;51.510;9.942;2024-02-28T10:54:10;7.10;99.90
33673;DHT22;20011;51.510;9.942;2024-02-28T10:56:40;7.20;99.90
33673;DHT22;20011;51.510;9.942;2024-02-28T10:59:12;7.20;99.90
33673;DHT22;20011;51.510;9.942;2024-02-28T11:01:42;7.00;99.90
33673;DHT22;20011;51.510;9.942;2024-02-28T11:04:12;7.10;99.90
33673;DHT22;20011;51.510;9.942;2024-02-28T11:06:50;7.10;99.90
33673;DHT22;20011;51.510;9.942;2024-02-28T11:09:24;7.10;99.90
33673;DHT22;20011;51.510;9.942;2024-02-28T11:11:53;7.20;99.90
33673;DHT22;20011;51.510;9.942;2024-02-28T11:14:21;7.20;99.90
33673;DHT22;20011;51.510;9.942;2024-02-28T11:17:02;7.20;99.90
33673;DHT22;20011;51.510;9.942;2024-02-28T11:19:31;7.20;99.90
33673;DHT22;20011;51.510;9.942;2024-02-28T11:22:00;7.30;99.90
33673;DHT22;20011;51.510;9.942;2024-02-28T11:24:33;7.30;99.90
33673;DHT22;20011;51.510;9.942;2024-02-28T11:27:01;7.20;99.90
33673;DHT22;20011;51.510;9.942;2024-02-28T11:29:33;7.30;99.90
33673;DHT22;20011;51.510;9.942;2024-02-28T11:32:00;7.40;99.90
33673;DHT22;20011;51.510;9.942;2024-02-28T11:34:28;7.50;99.90
33673;DHT22;20011;51.510;9.942;2024-02-28T11:36:55;7.40;99.90
33673;DHT22;20011;51.510;9.942;2024-02-28T11:39:23;7.60;99.90
33673;DHT22;20011;51.510;9.942;2024-02-28T11:41:54;7.60;99.90
33673;DHT22;20011;51.510;9.942;2024-02-28T11:44:21;7.50;99.90
33673;DHT22;20011;51.510;9.942;2024-02-28T11:46:48;7.50;99.90
33673;DHT22;20011;51.510;9.942;2024-02-28T11:49:16;7.50;99.90
33673;DHT22;20011;51.510;9.942;2024-02-28T11:51:46;7.50;99.90
33673;DHT22;20011;51.510;9.942;2024-02-28T11:54:14;7.50;99.90
33673;DHT22;20011;51.510;9.942;2024-02-28T11:56:41;7.50;99.90
33673;DHT22;20011;51.510;9.942;2024-02-28T11:59:11;7.40;99.90
33673;DHT22;20011;51.510;9.942;2024-02-28T12:01:41;7.40;99.90
33673;DHT22;20011;51.510;9.942;2024-02-28T12:04:10;7.40;99.90
33673;DHT22;20011;51.510;9.942;2024-02-28T12:06:38;7.30;99.90
33673;DHT22;20011;51.510;9.942;2024-02-28T12:09:10;7.30;99.90
33673;DHT22;20011;51.510;9.942;2024-02-28T12:11:45;7.20;99.90
33673;DHT22;20011;51.510;9.942;2024-02-28T12:14:13;7.20;99.90
33673;DHT22;20011;51.510;9.942;2024-02-28T12:16:40;7.30;99.90
33673;DHT22;20011;51.510;9.942;2024-02-28T12:19:11;7.20;99.90
33673;DHT22;20011;51.510;9.942;2024-02-28T12:21:39;7.30;99.90
33673;DHT22;20011;51.510;9.942;2024-02-28T12:24:10;7.40;99.90
33673;DHT22;20011;51.510;9.942;2024-02-28T12:26:38;7.20;99.90
33673;DHT22;20011;51.510;9.942;2024-02-28T12:29:06;7.30;99.90
33673;DHT22;20011;51.510;9.942;2024-02-28T12:31:33;7.30;99.90
33673;DHT22;20011;51.510;9.942;2024-02-28T12:34:00;7.50;99.90
33673;DHT22;20011;51.510;9.942;2024-02-28T12:36:28;7.60;99.90
33673;DHT22;20011;51.510;9.942;2024-02-28T12:38:55;7.70;99.90
33673;DHT22;20011;51.510;9.942;2024-02-28T12:41:22;7.70;99.90
33673;DHT22;20011;51.510;9.942;2024-02-28T12:43:49;7.70;99.90
33673;DHT22;20011;51.510;9.942;2024-02-28T12:46:16;7.80;99.90
33673;DHT22;20011;51.510;9.942;2024-02-28T12:48:43;7.80;99.90
33673;DHT22;20011;51.510;9.942;2024-02-28T12:51:21;7.80;99.90
33673;DHT22;20011;51.510;9.942;2024-02-28T12:54:02;7.90;99.90
33673;DHT22;20011;51.510;9.942;2024-02-28T12:56:29;7.90;99.90
33673;DHT22;20011;51.510;9.942;2024-02-28T12:58:56;7.90;99.90
33673;DHT22;20011;51.510;9.942;2024-02-28T13:01:23;7.90;99.90
33673;DHT22;20011;51.510;9.942;2024-02-28T13:03:50;8.00;99.90
33673;DHT22;20011;51.510;9.942;2024-02-28T13:06:17;7.90;99.90
33673;DHT22;20011;51.510;9.942;2024-02-28T13:08:43;7.90;99.90
33673;DHT22;20011;51.510;9.942;2024-02-28T13:11:11;7.90;99.90
33673;DHT22;20011;51.510;9.942;2024-02-28T13:13:38;7.90;99.90
33673;DHT22;20011;51.510;9.942;2024-02-28T13:16:05;7.90;99.90
33673;DHT22;20011;51.510;9.942;2024-02-28T13:18:32;7.90;99.90
33673;DHT22;20011;51.510;9.942;2024-02-28T13:20:59;7.90;99.90
33673;DHT22;20011;51.510;9.942;2024-02-28T13:23:26;7.90;99.90
33673;DHT22;20011;51.510;9.942;2024-02-28T13:25:53;7.90;99.90
33673;DHT22;20011;51.510;9.942;2024-02-28T13:28:20;7.90;99.90
33673;DHT22;20011;51.510;9.942;2024-02-28T13:30:47;8.00;99.90
33673;DHT22;20011;51.510;9.942;2024-02-28T13:33:15;8.00;99.90
33673;DHT22;20011;51.510;9.942;2024-02-28T13:35:42;7.90;99.90
33673;DHT22;20011;51.510;9.942;2024-02-28T13:38:09;8.00;99.90
33673;DHT22;20011;51.510;9.942;2024-02-28T13:40:36;8.00;99.90
33673;DHT22;20011;51.510;9.942;2024-02-28T13:43:04;8.00;99.90
33673;DHT22;20011;51.510;9.942;2024-02-28T13:45:31;8.00;99.90
33673;DHT22;20011;51.510;9.942;2024-02-28T13:47:58;7.90;99.90
33673;DHT22;20011;51.510;9.942;2024-02-28T13:50:25;8.00;99.90
33673;DHT22;20011;51.510;9.942;2024-02-28T13:52:58;8.00;99.90
33673;DHT22;20011;51.510;9.942;2024-02-28T13:55:25;8.00;99.90
33673;DHT22;20011;51.510;9.942;2024-02-28T13:57:52;8.00;99.90
33673;DHT22;20011;51.510;9.942;2024-02-28T14:00:19;8.00;99.90
33673;DHT22;20011;51.510;9.942;2024-02-28T14:02:46;8.10;99.90
33673;DHT22;20011;51.510;9.942;2024-02-28T14:05:13;8.10;99.90
33673;DHT22;20011;51.510;9.942;2024-02-28T14:10:21;8.20;99.90
33673;DHT22;20011;51.510;9.942;2024-02-28T14:12:48;8.10;99.90
33673;DHT22;20011;51.510;9.942;2024-02-28T14:15:15;8.10;99.90
33673;DHT22;20011;51.510;9.942;2024-02-28T14:17:42;8.20;99.90
33673;DHT22;20011;51.510;9.942;2024-02-28T14:20:10;8.30;99.90
33673;DHT22;20011;51.510;9.942;2024-02-28T14:22:37;8.30;99.90
33673;DHT22;20011;51.510;9.942;2024-02-28T14:25:05;8.30;99.90
33673;DHT22;20011;51.510;9.942;2024-02-28T14:27:32;8.20;99.90
33673;DHT22;20011;51.510;9.942;2024-02-28T14:30:00;8.20;99.90
33673;DHT22;20011;51.510;9.942;2024-02-28T14:32:27;8.20;99.90
33673;DHT22;20011;51.510;9.942;2024-02-28T14:34:54;8.30;99.90
33673;DHT22;20011;51.510;9.942;2024-02-28T14:37:21;8.20;99.90
33673;DHT22;20011;51.510;9.942;2024-02-28T14:39:48;8.30;99.90
33673;DHT22;20011;51.510;9.942;2024-02-28T14:42:15;8.30;99.90
33673;DHT22;20011;51.510;9.942;2024-02-28T14:44:42;8.30;99.90
33673;DHT22;20011;51.510;9.942;2024-02-28T14:47:09;8.30;99.90
33673;DHT22;20011;51.510;9.942;2024-02-28T14:49:36;8.30;99.90
33673;DHT22;20011;51.510;9.942;2024-02-28T14:52:04;8.30;99.90
33673;DHT22;20011;51.510;9.942;2024-02-28T14:54:31;8.30;99.90
33673;DHT22;20011;51.510;9.942;2024-02-28T14:56:58;8.30;99.90
33673;DHT22;20011;51.510;9.942;2024-02-28T14:59:25;8.30;99.90
33673;DHT22;20011;51.510;9.942;2024-02-28T15:01:52;8.30;99.90
33673;DHT22;20011;51.510;9.942;2024-02-28T15:04:20;8.30;99.90
33673;DHT22;20011;51.510;9.942;2024-02-28T15:06:46;8.30;99.90
33673;DHT22;20011;51.510;9.942;2024-02-28T15:09:15;8.40;99.90
33673;DHT22;20011;51.510;9.942;2024-02-28T15:11:42;8.40;99.90
33673;DHT22;20011;51.510;9.942;2024-02-28T15:14:09;8.30;99.90
33673;DHT22;20011;51.510;9.942;2024-02-28T15:16:36;8.40;99.90
33673;DHT22;20011;51.510;9.942;2024-02-28T15:19:03;8.40;99.90
33673;DHT22;20011;51.510;9.942;2024-02-28T15:21:30;8.40;99.90
33673;DHT22;20011;51.510;9.942;2024-02-28T15:23:57;8.40;99.90
33673;DHT22;20011;51.510;9.942;2024-02-28T15:26:24;8.40;99.90
33673;DHT22;20011;51.510;9.942;2024-02-28T15:29:05;8.40;99.90
33673;DHT22;20011;51.510;9.942;2024-02-28T15:31:32;8.40;99.90
33673;DHT22;20011;51.510;9.942;2024-02-28T15:33:59;8.40;99.90
33673;DHT22;20011;51.510;9.942;2024-02-28T15:36:26;8.40;99.90
33673;DHT22;20011;51.510;9.942;2024-02-28T15:38:53;8.40;99.90
33673;DHT22;20011;51.510;9.942;2024-02-28T15:41:20;8.40;99.90
33673;DHT22;20011;51.510;9.942;2024-02-28T15:43:50;8.40;99.90
33673;DHT22;20011;51.510;9.942;2024-02-28T15:46:17;8.40;99.90
33673;DHT22;20011;51.510;9.942;2024-02-28T15:48:45;8.30;99.90
33673;DHT22;20011;51.510;9.942;2024-02-28T15:51:13;8.40;99.90
33673;DHT22;20011;51.510;9.942;2024-02-28T15:53:39;8.40;99.90